createdAt,value
2023-05-06T00:00:04.969Z,12.50
2023-05-06T00:02:32.393Z,12.40
2023-05-06T00:05:00.148Z,12.40
2023-05-06T00:09:53.697Z,12.40
2023-05-06T00:12:20.502Z,12.30
2023-05-06T00:14:47.089Z,12.20
2023-05-06T00:17:13.728Z,12.20
2023-05-06T00:19:41.707Z,12.10
2023-05-06T00:22:08.384Z,12.20
2023-05-06T00:24:34.988Z,12.10
2023-05-06T00:27:01.864Z,12.10
2023-05-06T00:29:28.418Z,12.00
2023-05-06T00:31:55.125Z,12.00
2023-05-06T00:34:21.746Z,12.00
2023-05-06T00:36:49.004Z,12.00
2023-05-06T00:39:16.111Z,12.00
2023-05-06T00:41:46.339Z,11.90
2023-05-06T00:44:12.962Z,11.90
2023-05-06T00:46:39.650Z,11.60
2023-05-06T00:49:06.353Z,11.80
2023-05-06T00:51:33.049Z,11.90
2023-05-06T00:54:01.344Z,11.80
2023-05-06T00:56:28.461Z,11.90
2023-05-06T00:58:55.116Z,11.90
2023-05-06T01:03:49.084Z,11.70
2023-05-06T01:06:22.359Z,11.60
2023-05-06T01:08:56.925Z,11.70
2023-05-06T01:11:29.382Z,11.70
2023-05-06T01:14:01.838Z,11.60
2023-05-06T01:16:30.738Z,11.90
2023-05-06T01:18:59.675Z,11.60
2023-05-06T01:21:34.065Z,11.50
2023-05-06T01:24:01.536Z,11.70
2023-05-06T01:26:28.138Z,11.80
2023-05-06T01:28:55.443Z,11.40
2023-05-06T01:31:25.748Z,11.30
2023-05-06T01:34:02.438Z,11.30
2023-05-06T01:36:33.009Z,11.20
2023-05-06T01:39:08.390Z,11.20
2023-05-06T01:41:37.652Z,10.90
2023-05-06T01:44:06.919Z,11.10
2023-05-06T01:46:33.761Z,11.20
2023-05-06T01:49:04.098Z,11.00
2023-05-06T01:51:32.741Z,10.90
2023-05-06T01:53:59.540Z,10.80
2023-05-06T01:56:29.430Z,10.90
2023-05-06T02:01:25.338Z,10.70
2023-05-06T02:03:52.104Z,10.90
2023-05-06T02:11:12.784Z,10.50
2023-05-06T02:13:40.225Z,10.40
2023-05-06T02:16:08.050Z,10.60
2023-05-06T02:18:35.100Z,10.40
2023-05-06T02:21:02.428Z,11.00
2023-05-06T02:25:57.347Z,9.50
2023-05-06T02:28:24.327Z,10.30
2023-05-06T02:30:55.152Z,10.40
2023-05-06T02:33:22.125Z,9.90
2023-05-06T02:38:15.823Z,10.40
2023-05-06T02:40:42.389Z,10.70
2023-05-06T02:43:09.026Z,10.60
2023-05-06T02:48:03.567Z,10.20
2023-05-06T02:52:57.111Z,10.50
2023-05-06T02:55:23.888Z,10.00
2023-05-06T03:00:17.921Z,10.00
2023-05-06T03:05:12.696Z,10.40
2023-05-06T03:07:39.392Z,10.50
2023-05-06T03:10:07.012Z,9.60
2023-05-06T03:12:33.632Z,10.00
2023-05-06T03:17:27.463Z,10.00
2023-05-06T03:22:21.701Z,9.90
2023-05-06T03:24:48.309Z,10.10
2023-05-06T03:32:08.672Z,9.70
2023-05-06T03:37:02.345Z,9.80
2023-05-06T03:39:29.661Z,9.70
2023-05-06T03:41:56.299Z,9.70
2023-05-06T03:44:22.910Z,9.70
2023-05-06T03:54:10.372Z,9.70
2023-05-06T03:56:37.714Z,9.60
2023-05-06T04:01:31.225Z,9.50
2023-05-06T04:06:25.417Z,9.60
2023-05-06T04:08:52.002Z,9.60
2023-05-06T04:11:18.662Z,9.60
2023-05-06T04:13:46.249Z,9.60
2023-05-06T04:18:39.873Z,10.00
2023-05-06T04:23:33.434Z,10.10
2023-05-06T04:28:27.185Z,8.90
2023-05-06T04:30:54.463Z,9.70
2023-05-06T04:35:56.008Z,8.80
2023-05-06T04:38:24.937Z,9.70
2023-05-06T04:40:51.543Z,9.40
2023-05-06T04:43:18.121Z,10.00
2023-05-06T04:48:18.897Z,9.50
2023-05-06T04:50:46.230Z,10.30
2023-05-06T04:53:12.868Z,9.90
2023-05-06T05:03:01.348Z,9.80
2023-05-06T05:05:28.832Z,10.30
2023-05-06T05:10:22.414Z,9.70
2023-05-06T05:12:49.027Z,10.10
2023-05-06T05:17:42.677Z,10.00
2023-05-06T05:20:10.169Z,9.70
2023-05-06T05:22:37.576Z,9.70
2023-05-06T05:25:07.502Z,9.80
2023-05-06T05:27:34.691Z,9.80
2023-05-06T05:32:28.274Z,9.60
2023-05-06T05:34:54.882Z,9.50
2023-05-06T05:37:21.527Z,9.60
2023-05-06T05:39:48.789Z,9.90
2023-05-06T05:42:15.368Z,10.20
2023-05-06T05:49:35.865Z,9.60
2023-05-06T05:54:29.557Z,8.90
2023-05-06T05:56:57.348Z,9.70
2023-05-06T06:04:17.708Z,9.70
2023-05-06T06:06:44.316Z,9.20
2023-05-06T06:09:11.370Z,9.80
2023-05-06T06:11:38.334Z,9.90
2023-05-06T06:14:05.543Z,9.60
2023-05-06T06:16:32.214Z,9.50
2023-05-06T06:18:59.103Z,9.90
2023-05-06T06:21:27.193Z,9.70
2023-05-06T06:23:53.957Z,9.50
2023-05-06T06:28:47.669Z,9.80
2023-05-06T06:31:15.079Z,9.70
2023-05-06T06:33:41.669Z,9.30
2023-05-06T06:36:08.995Z,9.40
2023-05-06T06:38:35.835Z,8.90
2023-05-06T06:41:02.660Z,9.90
2023-05-06T06:43:29.475Z,9.60
2023-05-06T06:48:23.713Z,9.60
2023-05-06T06:53:17.857Z,9.70
2023-05-06T07:00:39.917Z,9.70
2023-05-06T07:05:34.245Z,9.70
2023-05-06T07:10:27.801Z,9.70
2023-05-06T07:12:54.527Z,10.00
2023-05-06T07:15:21.533Z,9.90
2023-05-06T07:17:48.288Z,9.90
2023-05-06T07:22:44.865Z,9.80
2023-05-06T07:25:11.915Z,9.80
2023-05-06T07:27:39.039Z,9.90
2023-05-06T07:30:07.375Z,9.50
2023-05-06T07:32:34.129Z,9.70
2023-05-06T07:35:01.487Z,10.00
2023-05-06T07:37:28.230Z,9.50
2023-05-06T07:39:56.580Z,9.50
2023-05-06T07:42:23.155Z,9.80
2023-05-06T07:44:49.710Z,9.70
2023-05-06T07:47:26.478Z,9.70
2023-05-06T07:52:20.082Z,9.50
2023-05-06T07:57:15.157Z,9.60
2023-05-06T07:59:42.347Z,9.70
2023-05-06T08:02:09.239Z,9.90
2023-05-06T08:04:36.149Z,9.70
2023-05-06T08:07:02.954Z,9.70
2023-05-06T08:11:57.617Z,9.70
2023-05-06T08:14:25.539Z,9.80
2023-05-06T08:16:52.790Z,10.00
2023-05-06T08:21:48.025Z,9.80
2023-05-06T08:24:14.988Z,10.10
2023-05-06T08:29:08.670Z,10.00
2023-05-06T08:31:35.972Z,10.00
2023-05-06T08:34:02.743Z,10.40
2023-05-06T08:36:29.440Z,10.00
2023-05-06T08:38:56.086Z,10.40
2023-05-06T08:43:50.164Z,10.30
2023-05-06T08:46:18.053Z,10.40
2023-05-06T08:48:45.489Z,10.10
2023-05-06T08:51:14.371Z,10.30
2023-05-06T08:53:46.537Z,10.20
2023-05-06T08:56:14.784Z,10.20
2023-05-06T08:58:45.160Z,10.30
2023-05-06T09:01:13.863Z,10.30
2023-05-06T09:03:40.620Z,10.10
2023-05-06T09:06:08.175Z,10.40
2023-05-06T09:08:35.426Z,10.20
2023-05-06T09:11:02.195Z,10.10
2023-05-06T09:23:18.165Z,10.50
2023-05-06T09:25:46.057Z,10.20
2023-05-06T09:28:13.603Z,10.50
2023-05-06T09:30:41.181Z,11.00
2023-05-06T09:33:08.381Z,10.70
2023-05-06T09:35:39.318Z,10.80
2023-05-06T09:38:07.361Z,10.80
2023-05-06T09:40:35.275Z,10.80
2023-05-06T09:43:02.481Z,10.50
2023-05-06T09:45:30.054Z,11.00
2023-05-06T09:47:57.850Z,10.70
2023-05-06T09:50:24.954Z,10.70
2023-05-06T09:52:52.280Z,10.10
2023-05-06T09:55:20.070Z,11.30
2023-05-06T09:57:47.750Z,10.70
2023-05-06T10:04:05.486Z,11.00
2023-05-06T10:06:34.894Z,11.10
2023-05-06T10:09:02.181Z,11.10
2023-05-06T10:11:30.375Z,11.10
2023-05-06T10:13:59.089Z,11.00
2023-05-06T10:16:26.094Z,11.00
2023-05-06T10:18:55.565Z,11.00
2023-05-06T10:21:26.742Z,11.30
2023-05-06T10:24:06.310Z,10.90
2023-05-06T10:26:36.161Z,10.90
2023-05-06T10:29:08.862Z,10.70
2023-05-06T10:31:43.494Z,11.00
2023-05-06T10:34:10.269Z,11.00
2023-05-06T10:36:38.623Z,11.10
2023-05-06T10:39:09.278Z,10.80
2023-05-06T10:41:37.048Z,10.80
2023-05-06T10:44:05.424Z,10.90
2023-05-06T10:46:32.156Z,10.80
2023-05-06T10:49:17.669Z,10.80
2023-05-06T10:51:44.262Z,10.80
2023-05-06T10:54:21.337Z,10.80
2023-05-06T10:57:11.884Z,11.00
2023-05-06T10:59:45.816Z,10.70
2023-05-06T11:02:13.360Z,10.50
2023-05-06T11:04:40.585Z,10.50
2023-05-06T11:07:10.001Z,10.40
2023-05-06T11:09:55.339Z,10.60
2023-05-06T11:12:22.317Z,10.70
2023-05-06T11:14:49.666Z,10.60
2023-05-06T11:17:32.939Z,10.60
2023-05-06T11:20:19.840Z,10.60
2023-05-06T11:22:46.604Z,10.60
2023-05-06T11:25:13.362Z,10.80
2023-05-06T11:27:40.849Z,10.60
2023-05-06T11:30:14.517Z,10.60
2023-05-06T11:32:43.494Z,10.60
2023-05-06T11:35:11.747Z,10.10
2023-05-06T11:37:38.493Z,10.40
2023-05-06T11:40:14.218Z,10.40
2023-05-06T11:42:41.163Z,10.40
2023-05-06T11:45:10.975Z,10.50
2023-05-06T11:47:43.813Z,10.50
2023-05-06T11:50:11.140Z,10.70
2023-05-06T11:52:38.231Z,10.50
2023-05-06T11:55:09.435Z,10.40
2023-05-06T11:57:36.039Z,10.40
2023-05-06T12:00:04.335Z,10.60
2023-05-06T12:02:31.646Z,10.50
2023-05-06T12:04:59.165Z,10.10
2023-05-06T12:07:25.964Z,10.50
2023-05-06T12:09:52.814Z,10.50
2023-05-06T12:12:21.616Z,10.60
2023-05-06T12:14:50.015Z,10.60
2023-05-06T12:17:16.882Z,10.70
2023-05-06T12:19:45.761Z,10.70
2023-05-06T12:22:17.237Z,10.70
2023-05-06T12:24:43.990Z,10.70
2023-05-06T12:27:10.841Z,10.70
2023-05-06T12:29:37.460Z,10.60
2023-05-06T12:32:08.733Z,10.50
2023-05-06T12:34:39.985Z,10.50
2023-05-06T12:37:08.445Z,10.70
2023-05-06T12:39:36.456Z,10.60
2023-05-06T12:42:03.399Z,10.70
2023-05-06T12:44:34.671Z,11.00
2023-05-06T12:47:02.749Z,10.70
2023-05-06T12:49:47.670Z,10.80
2023-05-06T12:52:17.093Z,10.80
2023-05-06T12:54:48.058Z,10.70
2023-05-06T12:57:18.908Z,10.20
2023-05-06T13:02:16.783Z,11.30
2023-05-06T13:04:44.557Z,10.40
2023-05-06T13:07:12.355Z,10.40
2023-05-06T13:09:40.750Z,10.40
2023-05-06T13:12:07.546Z,10.40
2023-05-06T13:14:37.681Z,10.50
2023-05-06T13:17:06.105Z,10.40
2023-05-06T13:19:33.635Z,10.40
2023-05-06T13:22:01.961Z,10.40
2023-05-06T13:24:29.130Z,10.50
2023-05-06T13:26:58.740Z,10.50
2023-05-06T13:29:26.576Z,10.50
2023-05-06T13:31:55.268Z,10.60
2023-05-06T13:34:22.928Z,10.70
2023-05-06T13:36:50.321Z,10.70
2023-05-06T13:39:17.856Z,10.70
2023-05-06T13:41:49.573Z,10.80
2023-05-06T13:44:16.885Z,10.90
2023-05-06T13:46:46.432Z,10.80
2023-05-06T13:49:18.476Z,10.70
2023-05-06T13:51:45.432Z,10.50
2023-05-06T13:54:12.007Z,10.90
2023-05-06T13:56:38.625Z,10.70
2023-05-06T13:59:07.833Z,10.80
2023-05-06T14:01:35.607Z,10.80
2023-05-06T14:04:02.243Z,10.80
2023-05-06T14:06:31.621Z,10.80
2023-05-06T14:08:58.294Z,10.80
2023-05-06T14:13:51.896Z,10.90
2023-05-06T14:16:18.538Z,10.90
2023-05-06T14:18:45.974Z,10.90
2023-05-06T14:21:12.649Z,10.90
2023-05-06T14:23:39.474Z,10.90
2023-05-06T14:26:06.055Z,11.30
2023-05-06T14:28:32.620Z,11.00
2023-05-06T14:30:59.210Z,11.30
2023-05-06T14:33:26.019Z,11.30
2023-05-06T14:35:53.427Z,10.90
2023-05-06T14:40:46.999Z,10.90
2023-05-06T14:43:13.574Z,11.20
2023-05-06T14:45:40.241Z,11.00
2023-05-06T14:48:06.935Z,9.60
2023-05-06T14:50:33.944Z,10.80
2023-05-06T14:53:03.551Z,10.60
2023-05-06T14:55:31.049Z,10.70
2023-05-06T14:57:57.700Z,10.50
2023-05-06T15:00:24.744Z,10.50
2023-05-06T15:02:51.424Z,10.20
2023-05-06T15:05:18.158Z,10.40
2023-05-06T15:07:44.782Z,10.30
2023-05-06T15:10:12.118Z,10.50
2023-05-06T15:12:38.776Z,10.20
2023-05-06T15:15:07.053Z,10.20
2023-05-06T15:17:33.644Z,10.20
2023-05-06T15:20:00.499Z,10.10
2023-05-06T15:22:27.109Z,10.20
2023-05-06T15:24:53.668Z,10.50
2023-05-06T15:27:21.032Z,10.50
2023-05-06T15:29:47.938Z,10.30
2023-05-06T15:32:14.594Z,10.30
2023-05-06T15:34:41.259Z,10.40
2023-05-06T15:37:08.493Z,10.40
2023-05-06T15:39:36.790Z,10.70
2023-05-06T15:42:05.468Z,10.50
2023-05-06T15:44:33.186Z,10.50
2023-05-06T15:47:00.155Z,10.50
2023-05-06T15:52:13.830Z,10.40
2023-05-06T15:54:49.757Z,10.40
2023-05-06T15:57:17.892Z,10.40
2023-05-06T15:59:45.216Z,10.40
2023-05-06T16:02:26.901Z,10.10
2023-05-06T16:04:55.322Z,10.30
2023-05-06T16:07:22.132Z,10.30
2023-05-06T16:09:50.450Z,10.30
2023-05-06T16:12:17.354Z,10.20
2023-05-06T16:14:44.829Z,10.30
2023-05-06T16:17:11.637Z,10.50
2023-05-06T16:19:38.497Z,10.40
2023-05-06T16:22:05.187Z,10.40
2023-05-06T16:24:31.772Z,10.50
2023-05-06T16:26:58.592Z,10.10
2023-05-06T16:29:27.642Z,10.40
2023-05-06T16:31:55.045Z,10.40
2023-05-06T16:34:21.902Z,10.60
2023-05-06T16:36:49.593Z,10.30
2023-05-06T16:39:16.402Z,10.30
2023-05-06T16:41:43.501Z,10.10
2023-05-06T16:44:10.183Z,10.40
2023-05-06T16:46:36.814Z,10.60
2023-05-06T16:49:04.136Z,10.30
2023-05-06T16:51:31.355Z,10.60
2023-05-06T16:53:57.983Z,10.20
2023-05-06T16:56:28.140Z,10.40
2023-05-06T16:58:57.040Z,10.40
2023-05-06T17:01:23.736Z,10.30
2023-05-06T17:03:50.630Z,10.30
2023-05-06T17:06:17.929Z,10.30
2023-05-06T17:08:44.675Z,10.40
2023-05-06T17:11:11.354Z,10.00
2023-05-06T17:13:38.142Z,10.10
2023-05-06T17:16:05.323Z,10.10
2023-05-06T17:21:01.133Z,10.20
2023-05-06T17:23:28.352Z,10.10
2023-05-06T17:25:55.824Z,10.10
2023-05-06T17:28:22.454Z,10.10
2023-05-06T17:33:16.104Z,10.20
2023-05-06T17:35:43.004Z,10.10
2023-05-06T17:38:11.664Z,10.20
2023-05-06T17:40:39.068Z,10.20
2023-05-06T17:43:06.819Z,10.10
2023-05-06T17:48:00.490Z,10.10
2023-05-06T17:50:27.151Z,10.20
2023-05-06T17:52:53.844Z,10.10
2023-05-06T17:55:22.291Z,10.20
2023-05-06T17:57:51.006Z,10.10
2023-05-06T18:00:18.198Z,10.10
2023-05-06T18:02:45.370Z,10.00
2023-05-06T18:05:13.004Z,10.00
2023-05-06T18:07:40.266Z,10.00
2023-05-06T18:10:08.073Z,9.70
2023-05-06T18:12:34.808Z,10.00
2023-05-06T18:15:02.254Z,10.00
2023-05-06T18:17:29.065Z,10.00
2023-05-06T18:19:56.143Z,10.20
2023-05-06T18:22:22.812Z,10.00
2023-05-06T18:27:28.871Z,10.00
2023-05-06T18:32:23.604Z,10.00
2023-05-06T18:34:50.219Z,9.90
2023-05-06T18:37:17.037Z,9.90
2023-05-06T18:39:45.106Z,9.90
2023-05-06T18:42:11.844Z,9.90
2023-05-06T18:44:38.537Z,9.00
2023-05-06T18:47:05.435Z,9.80
2023-05-06T18:49:35.092Z,9.90
2023-05-06T18:52:02.769Z,9.60
2023-05-06T18:54:30.308Z,9.80
2023-05-06T18:56:57.921Z,9.90
2023-05-06T18:59:25.731Z,9.90
2023-05-06T19:01:53.778Z,9.90
2023-05-06T19:04:20.467Z,9.80
2023-05-06T19:06:48.322Z,9.80
2023-05-06T19:09:16.264Z,9.80
2023-05-06T19:11:43.152Z,10.00
2023-05-06T19:14:11.200Z,9.40
2023-05-06T19:16:39.130Z,9.80
2023-05-06T19:19:06.683Z,10.40
2023-05-06T19:21:36.845Z,9.00
2023-05-06T19:24:04.790Z,9.80
2023-05-06T19:26:34.078Z,9.80
2023-05-06T19:29:00.799Z,9.90
2023-05-06T19:31:28.282Z,9.90
2023-05-06T19:33:56.015Z,9.80
2023-05-06T19:36:25.163Z,9.80
2023-05-06T19:41:22.650Z,9.80
2023-05-06T19:43:52.207Z,9.90
2023-05-06T19:46:18.915Z,9.90
2023-05-06T19:48:47.147Z,9.90
2023-05-06T19:51:14.815Z,9.80
2023-05-06T19:53:41.972Z,10.80
2023-05-06T19:56:09.302Z,9.80
2023-05-06T19:58:38.854Z,9.80
2023-05-06T20:01:06.787Z,9.80
2023-05-06T20:03:35.197Z,9.80
2023-05-06T20:06:03.474Z,9.80
2023-05-06T20:08:30.644Z,9.70
2023-05-06T20:10:58.315Z,9.80
2023-05-06T20:13:25.336Z,9.80
2023-05-06T20:15:54.431Z,10.00
2023-05-06T20:18:21.149Z,9.80
2023-05-06T20:20:47.778Z,9.80
2023-05-06T20:23:14.868Z,9.70
2023-05-06T20:25:41.632Z,9.70
2023-05-06T20:28:08.337Z,9.80
2023-05-06T20:30:34.971Z,9.80
2023-05-06T20:33:03.016Z,9.80
2023-05-06T20:35:30.062Z,9.80
2023-05-06T20:37:57.608Z,9.40
2023-05-06T20:40:24.370Z,9.70
2023-05-06T20:42:50.998Z,9.80
2023-05-06T20:45:19.030Z,9.70
2023-05-06T20:47:45.685Z,9.70
2023-05-06T20:50:16.420Z,9.70
2023-05-06T20:52:44.941Z,9.70
2023-05-06T20:55:13.643Z,9.80
2023-05-06T20:57:44.011Z,9.80
2023-05-06T21:00:12.013Z,9.80
2023-05-06T21:05:09.488Z,9.70
2023-05-06T21:07:36.989Z,9.70
2023-05-06T21:10:05.174Z,9.70
2023-05-06T21:12:32.539Z,9.80
2023-05-06T21:14:59.410Z,9.80
2023-05-06T21:17:26.345Z,9.70
2023-05-06T21:19:53.134Z,9.80
2023-05-06T21:22:21.853Z,9.80
2023-05-06T21:24:50.124Z,9.80
2023-05-06T21:27:16.871Z,9.70
2023-05-06T21:29:43.459Z,9.70
2023-05-06T21:32:10.826Z,9.70
2023-05-06T21:34:37.710Z,9.70
2023-05-06T21:37:04.608Z,9.70
2023-05-06T21:39:31.815Z,9.70
2023-05-06T21:41:59.659Z,9.30
2023-05-06T21:44:26.292Z,9.60
2023-05-06T21:46:53.035Z,9.60
2023-05-06T21:49:21.678Z,9.70
2023-05-06T21:51:48.339Z,9.60
2023-05-06T21:54:16.292Z,9.70
2023-05-06T21:56:43.143Z,9.70
2023-05-06T21:59:10.370Z,9.70
2023-05-06T22:01:37.737Z,9.70
2023-05-06T22:04:10.307Z,9.70
2023-05-06T22:06:37.273Z,9.60
2023-05-06T22:09:08.484Z,9.60
2023-05-06T22:11:37.148Z,9.60
2023-05-06T22:14:05.352Z,9.60
2023-05-06T22:16:34.917Z,9.70
2023-05-06T22:19:03.464Z,9.70
2023-05-06T22:21:30.436Z,9.70
2023-05-06T22:23:57.371Z,9.70
2023-05-06T22:26:24.292Z,9.70
2023-05-06T22:28:50.920Z,9.70
2023-05-06T22:31:17.599Z,9.80
2023-05-06T22:33:46.877Z,9.60
2023-05-06T22:36:13.591Z,9.70
2023-05-06T22:38:40.156Z,9.70
2023-05-06T22:41:06.813Z,9.80
2023-05-06T22:43:33.407Z,9.60
2023-05-06T22:46:00.028Z,9.60
2023-05-06T22:48:27.168Z,9.70
2023-05-06T22:50:55.618Z,9.70
2023-05-06T22:53:22.195Z,9.70
2023-05-06T22:55:48.797Z,9.80
2023-05-06T22:58:15.365Z,9.70
2023-05-06T23:00:42.568Z,9.80
2023-05-06T23:03:09.468Z,9.80
2023-05-06T23:05:36.090Z,10.30
2023-05-06T23:08:03.400Z,9.80
2023-05-06T23:10:30.833Z,9.90
2023-05-06T23:13:00.500Z,9.80
2023-05-06T23:15:27.224Z,9.80
2023-05-06T23:17:53.912Z,9.80
2023-05-06T23:20:20.732Z,9.80
2023-05-06T23:22:47.451Z,9.80
2023-05-06T23:25:15.141Z,9.90
2023-05-06T23:27:43.012Z,9.80
2023-05-06T23:30:11.077Z,9.80
2023-05-06T23:32:38.623Z,9.80
2023-05-06T23:35:06.649Z,9.80
2023-05-06T23:37:33.434Z,9.80
2023-05-06T23:40:00.114Z,10.40
2023-05-06T23:42:27.386Z,9.80
2023-05-06T23:44:54.013Z,9.70
2023-05-06T23:47:20.945Z,9.80
2023-05-06T23:49:47.565Z,9.80
2023-05-06T23:52:14.214Z,9.80
2023-05-06T23:54:40.766Z,9.80
2023-05-06T23:57:07.399Z,9.80
2023-05-06T23:59:34.859Z,9.80
